Detall de PIREP

Printer-friendly versionPDF version

[2010/05/08 18:42:00]
Flight IATA:CT1001
Pilot Number:026
Company ICAO:CAT
Aircraft Type:F50/A
PAX:50
Departing Airport: LIEA
Destination Airport: LEIB
Alternate Airport:LEVC
Online: VATSIM
Route:DESOG UM601 BALEN UW700 RIXOT
Flight Level:FL210
No Slew and time accel
No pause
Crash detect
Detect pilot in Cockpit between each 30 and 45 minutes
18:42 Zero fuel Weight: 40722 Lbs, Fuel Weight: 3996 Lbs
18:42 VATSIM:LIEA 081820Z 20007KT CAVOK 15/12 Q1013
18:42 VATSIM:LEIB 081830Z 22006KT 9999 FEW015 18/16 Q1010 NOSIG
18:42 VOICE CATALONIAN / MEDITERRANEAN ODYSSEY
18:44 Parking Brakes off
18:50 Take-off
18:50 Take off Weight: 44665 Lbs
18:50 Wind: 200º @ 007 Knots Heading: 202º
18:50 POS N40º 37´ 52´´ E008º 17´ 25´´
18:50 Flaps:3 at 134 Knots
18:50 Gear Up: 134 Knots
18:51 Flaps:2 at 132 Knots
18:52 Flaps:1 at 138 Knots
18:53 Flaps:0 at 152 Knots
19:05 Wind:200º@022
Knots Heading: 269º Ground Speed: 216 Knots Altitude 20557 ft
19:05 TOC
19:05 Fuel Weight: 3528 Lb
19:20 Wind:242º@006 Knots Heading: 281º Ground Speed: 237 Knots Altitude 20971 ft
19:35 Wind:226º@009 Knots Heading: 233º Ground Speed: 241 Knots Altitude 20931 ft
19:50 Wind:192º@008 Knots Heading: 232º Ground Speed: 242 Knots Altitude 20938 ft
20:05 Wind:190º@011 Knots Heading: 238º Ground Speed: 241 Knots Altitude 20941 ft
20:12 TOD
20:12 Fuel Weight: 2127 Lb
20:20 Wind:199º@015 Knots Heading: 239º Ground Speed: 235 Knots Altitude 9232 ft
20:25 Gear Down: 192 Knots
20:25 Flaps:2 at 192 Knots
20:25 Flaps:3 at 178 Knots
20:25 Flaps:4 at 178 Knots
20:25 Flaps:5 at 142 Knots
20:26 Flaps:6 at 148 Knots
20:26 Flaps:5 at 109 Knots
20:26 Flaps:4 at 113 Knots
20:26 Flaps:3 at 141 Knots
20:27 Flaps:2 at 142 Knots
20:27 Gear Up: 155 Knots
20:27 Flaps:1 at 156 Knots

20:27 Flaps:0 at 161 Knots
20:32 Flaps:1 at 201 Knots
20:33 Flaps:2 at 158 Knots
20:35 Wind:203º@006 Knots Heading: 239º Ground Speed: 162 Knots Altitude 1115 ft
20:35 Gear Down: 140 Knots
20:35 Flaps:3 at 140 Knots
20:36 Flaps:4 at 123 Knots
20:37 Flaps:5 at 108 Knots
20:38 TouchDown:Rate -109 ft/min Speed: 93 Knots
20:38 VATSIM:LEIB 082030Z 20003KT 150V230 4000 BR SCT005 BKN010 17/16 Q1010 NOSIG
20:38 Land
20:38 Wind:161º@003 Knots
20:38 Heading: 244º
20:38 Flight Duration: 01:48
20:38 Landing Weight: 42505 Lbs
20:38 POS N38º 52´ 22´´ E001º 22´ 23´´
20:40 Parking brakes on
20:40 Block to Block Duration: 01:56
20:40 Final Fuel: 1768 Lbls
20:40 Spent Fuel: 2228 Lbls
20:40 Flight Length: 403 NM
20:40 TOD Land Length: 84 NM

Exportar CSV

Powered by Drupal - Modified by Danger4k